createdAt,value
2023-05-04T00:01:58.492Z,4.40
2023-05-04T00:04:28.454Z,4.70
2023-05-04T00:06:58.363Z,5.18
2023-05-04T00:09:28.243Z,4.85
2023-05-04T00:12:00.679Z,5.03
2023-05-04T00:14:30.644Z,4.88
2023-05-04T00:17:00.500Z,4.63
2023-05-04T00:19:30.329Z,5.47
2023-05-04T00:22:00.413Z,4.97
2023-05-04T00:24:30.310Z,4.88
2023-05-04T00:27:02.892Z,5.10
2023-05-04T00:29:33.163Z,5.10
2023-05-04T00:32:03.159Z,5.03
2023-05-04T00:34:34.473Z,5.60
2023-05-04T00:37:04.833Z,4.90
2023-05-04T00:39:35.282Z,5.35
2023-05-04T00:42:07.780Z,5.10
2023-05-04T00:44:41.369Z,5.10
2023-05-04T00:47:11.839Z,5.15
2023-05-04T00:49:42.431Z,5.10
2023-05-04T00:52:14.639Z,5.63
2023-05-04T00:54:45.630Z,5.20
2023-05-04T00:57:19.575Z,5.53
2023-05-04T00:59:49.509Z,5.38
2023-05-04T01:02:19.470Z,5.38
2023-05-04T01:04:49.650Z,6.30
2023-05-04T01:07:29.147Z,6.00
2023-05-04T01:10:05.069Z,5.80
2023-05-04T01:12:41.610Z,5.85
2023-05-04T01:15:13.086Z,5.88
2023-05-04T01:17:43.104Z,6.05
2023-05-04T01:20:14.143Z,5.72
2023-05-04T01:22:46.784Z,5.57
2023-05-04T01:25:16.933Z,6.35
2023-05-04T01:27:50.235Z,6.20
2023-05-04T01:30:25.684Z,6.03
2023-05-04T01:32:56.645Z,6.00
2023-05-04T01:35:26.951Z,6.38
2023-05-04T01:37:59.410Z,6.20
2023-05-04T01:40:29.288Z,5.68
2023-05-04T01:42:59.113Z,5.57
2023-05-04T01:45:28.938Z,6.35
2023-05-04T01:47:58.808Z,5.78
2023-05-04T01:50:28.859Z,6.00
2023-05-04T01:53:01.294Z,6.07
2023-05-04T01:55:31.630Z,5.90
2023-05-04T01:58:01.630Z,5.90
2023-05-04T02:00:31.572Z,5.78
2023-05-04T02:03:01.537Z,5.90
2023-05-04T02:05:31.408Z,5.90
2023-05-04T02:08:03.847Z,6.18
2023-05-04T02:10:33.830Z,6.43
2023-05-04T02:13:04.054Z,6.85
2023-05-04T02:15:34.084Z,6.15
2023-05-04T02:18:04.015Z,6.40
2023-05-04T02:20:33.965Z,6.80
2023-05-04T02:23:06.474Z,7.13
2023-05-04T02:25:36.439Z,6.90
2023-05-04T02:28:06.367Z,6.80
2023-05-04T02:30:36.286Z,7.63
2023-05-04T02:33:06.308Z,6.45
2023-05-04T02:35:36.460Z,6.80
2023-05-04T02:38:08.992Z,6.72
2023-05-04T02:40:38.869Z,6.95
2023-05-04T02:43:08.719Z,7.05
2023-05-04T02:45:38.890Z,7.88
2023-05-04T02:48:09.093Z,6.90
2023-05-04T02:50:38.984Z,7.20
2023-05-04T02:53:11.479Z,6.35
2023-05-04T02:55:41.372Z,6.05
2023-05-04T02:58:11.570Z,6.22
2023-05-04T03:00:41.381Z,6.60
2023-05-04T03:03:11.367Z,6.40
2023-05-04T03:05:41.360Z,6.95
2023-05-04T03:08:13.797Z,7.10
2023-05-04T03:10:43.629Z,7.10
2023-05-04T03:13:13.608Z,6.88
2023-05-04T03:15:43.720Z,7.50
2023-05-04T03:18:13.819Z,7.57
2023-05-04T03:20:43.854Z,7.57
2023-05-04T03:23:16.333Z,7.28
2023-05-04T03:25:46.278Z,7.68
2023-05-04T03:28:16.194Z,7.50
2023-05-04T03:30:46.089Z,7.38
2023-05-04T03:33:16.211Z,7.18
2023-05-04T03:35:46.074Z,7.45
2023-05-04T03:38:18.499Z,7.97
2023-05-04T03:40:48.412Z,8.27
2023-05-04T03:43:18.328Z,8.77
2023-05-04T03:45:48.266Z,7.85
2023-05-04T03:48:18.181Z,8.15
2023-05-04T03:50:48.134Z,8.88
2023-05-04T03:53:20.560Z,8.40
2023-05-04T03:55:50.382Z,9.07
2023-05-04T03:58:20.260Z,8.98
2023-05-04T04:00:50.062Z,9.02
2023-05-04T04:03:20.084Z,8.55
2023-05-04T04:05:50.187Z,9.13
2023-05-04T04:08:22.677Z,8.82
2023-05-04T04:10:52.583Z,9.23
2023-05-04T04:13:22.576Z,9.23
2023-05-04T04:15:52.827Z,9.35
2023-05-04T04:18:22.849Z,10.30
2023-05-04T04:20:53.184Z,8.90
2023-05-04T04:23:25.641Z,8.20
2023-05-04T04:25:55.613Z,9.18
2023-05-04T04:28:25.433Z,7.90
2023-05-04T04:30:56.130Z,8.20
2023-05-04T04:33:26.086Z,8.05
2023-05-04T04:35:56.761Z,8.43
2023-05-04T04:38:29.228Z,8.38
2023-05-04T04:40:59.258Z,7.85
2023-05-04T04:43:29.072Z,8.40
2023-05-04T04:45:58.954Z,8.38
2023-05-04T04:48:28.873Z,8.38
2023-05-04T04:50:59.147Z,8.05
2023-05-04T04:53:31.895Z,8.02
2023-05-04T04:56:01.787Z,8.48
2023-05-04T04:58:32.589Z,8.20
2023-05-04T05:01:02.841Z,7.90
2023-05-04T05:03:32.845Z,8.13
2023-05-04T05:06:04.202Z,8.35
2023-05-04T05:08:38.233Z,9.10
2023-05-04T05:11:08.524Z,8.15
2023-05-04T05:13:38.434Z,8.65
2023-05-04T05:16:09.049Z,8.13
2023-05-04T05:18:38.914Z,7.53
2023-05-04T05:21:09.362Z,7.72
2023-05-04T05:23:41.997Z,7.57
2023-05-04T05:26:11.904Z,7.57
2023-05-04T05:28:42.148Z,8.43
2023-05-04T05:31:12.062Z,7.40
2023-05-04T05:33:43.178Z,7.60
2023-05-04T05:36:14.674Z,7.93
2023-05-04T05:38:48.344Z,7.95
2023-05-04T05:41:20.126Z,7.85
2023-05-04T05:43:49.990Z,8.18
2023-05-04T05:46:19.905Z,8.07
2023-05-04T05:48:49.858Z,7.40
2023-05-04T05:51:19.798Z,8.63
2023-05-04T05:53:52.266Z,8.55
2023-05-04T05:56:22.346Z,8.45
2023-05-04T05:58:54.353Z,8.88
2023-05-04T06:01:24.370Z,8.35
2023-05-04T06:03:54.430Z,8.95
2023-05-04T06:06:24.430Z,8.52
2023-05-04T06:08:56.918Z,8.63
2023-05-04T06:11:26.917Z,9.05
2023-05-04T06:13:56.748Z,8.85
2023-05-04T06:16:27.107Z,9.48
2023-05-04T06:18:56.999Z,9.90
2023-05-04T06:21:26.892Z,9.07
2023-05-04T06:23:59.288Z,8.57
2023-05-04T06:26:29.349Z,8.90
2023-05-04T06:28:59.209Z,8.70
2023-05-04T06:31:29.183Z,8.68
2023-05-04T06:33:59.062Z,9.55
2023-05-04T06:36:28.964Z,8.88
2023-05-04T06:39:01.425Z,9.77
2023-05-04T06:41:31.721Z,9.00
2023-05-04T06:44:01.596Z,9.40
2023-05-04T06:46:31.662Z,9.77
2023-05-04T06:49:01.546Z,8.85
2023-05-04T06:51:31.495Z,9.68
2023-05-04T06:54:03.934Z,9.07
2023-05-04T06:56:34.625Z,9.10
2023-05-04T06:59:05.982Z,9.93
2023-05-04T07:01:35.885Z,9.65
2023-05-04T07:04:08.642Z,9.35
2023-05-04T07:06:39.590Z,10.00
2023-05-04T07:09:12.076Z,10.10
2023-05-04T07:11:42.107Z,9.25
2023-05-04T07:14:12.303Z,9.82
2023-05-04T07:16:42.352Z,9.95
2023-05-04T07:19:12.264Z,9.25
2023-05-04T07:21:42.120Z,10.75
2023-05-04T07:24:14.616Z,10.13
2023-05-04T07:26:44.444Z,9.88
2023-05-04T07:29:14.343Z,10.50
2023-05-04T07:31:44.220Z,10.48
2023-05-04T07:34:14.095Z,10.85
2023-05-04T07:36:44.002Z,10.50
2023-05-04T07:39:16.868Z,9.95
2023-05-04T07:41:48.754Z,9.80
2023-05-04T07:44:19.433Z,11.52
2023-05-04T07:46:49.348Z,10.57
2023-05-04T07:49:19.190Z,11.23
2023-05-04T07:51:49.059Z,10.52
2023-05-04T07:54:22.981Z,10.00
2023-05-04T07:56:53.037Z,8.70
2023-05-04T07:59:23.153Z,8.80
2023-05-04T08:01:53.106Z,8.88
2023-05-04T08:04:23.019Z,9.10
2023-05-04T08:06:52.896Z,8.85
2023-05-04T08:09:25.328Z,8.15
2023-05-04T08:11:55.340Z,8.98
2023-05-04T08:14:25.233Z,8.70
2023-05-04T08:16:55.231Z,8.15
2023-05-04T08:19:25.360Z,8.60
2023-05-04T08:21:55.549Z,7.85
2023-05-04T08:24:28.100Z,6.95
2023-05-04T08:27:07.354Z,6.70
2023-05-04T08:29:38.571Z,6.65
2023-05-04T08:32:08.779Z,5.90
2023-05-04T08:34:39.334Z,5.68
2023-05-04T08:37:09.247Z,5.90
2023-05-04T08:39:42.299Z,6.10
2023-05-04T08:42:12.983Z,5.72
2023-05-04T08:44:43.941Z,6.00
2023-05-04T08:47:13.918Z,5.80
2023-05-04T08:49:44.369Z,6.70
2023-05-04T08:52:15.132Z,5.88
2023-05-04T08:54:48.466Z,5.85
2023-05-04T08:57:19.209Z,5.17
2023-05-04T08:59:53.976Z,5.95
2023-05-04T09:02:26.164Z,5.03
2023-05-04T09:04:57.117Z,5.13
2023-05-04T09:07:27.137Z,5.70
2023-05-04T09:10:00.973Z,5.13
2023-05-04T09:12:31.618Z,5.10
2023-05-04T09:15:02.732Z,5.18
2023-05-04T09:17:33.122Z,8.77
2023-05-04T09:20:03.890Z,4.90
2023-05-04T09:22:33.950Z,5.07
2023-05-04T09:25:17.107Z,5.25
2023-05-04T09:27:56.381Z,5.07
2023-05-04T09:30:26.581Z,4.18
2023-05-04T09:32:57.413Z,4.25
2023-05-04T09:35:33.725Z,4.22
2023-05-04T09:38:04.658Z,4.28
2023-05-04T09:40:40.327Z,4.32
2023-05-04T09:43:10.894Z,4.43
2023-05-04T09:45:44.954Z,4.30
2023-05-04T09:48:25.765Z,4.80
2023-05-04T09:50:56.739Z,4.18
2023-05-04T09:53:27.997Z,4.32
2023-05-04T09:56:11.443Z,4.00
2023-05-04T09:58:41.871Z,4.20
2023-05-04T10:01:12.510Z,4.38
2023-05-04T10:03:43.237Z,3.95
2023-05-04T10:06:14.977Z,4.53
2023-05-04T10:08:45.721Z,4.78
2023-05-04T10:11:19.404Z,4.38
2023-05-04T10:13:50.099Z,4.47
2023-05-04T10:16:44.199Z,3.95
2023-05-04T10:19:47.205Z,4.32
2023-05-04T10:22:39.312Z,3.88
2023-05-04T10:25:32.942Z,4.10
2023-05-04T10:28:17.941Z,4.13
2023-05-04T10:30:47.979Z,4.28
2023-05-04T10:33:18.132Z,4.20
2023-05-04T10:35:55.266Z,4.50
2023-05-04T10:38:35.097Z,3.92
2023-05-04T10:41:15.752Z,3.80
2023-05-04T10:43:53.413Z,3.78
2023-05-04T10:46:24.701Z,3.65
2023-05-04T10:48:55.016Z,3.92
2023-05-04T10:51:35.516Z,3.92
2023-05-04T10:54:05.959Z,3.78
2023-05-04T10:56:36.030Z,3.38
2023-05-04T10:59:15.045Z,3.70
2023-05-04T11:01:46.244Z,3.72
2023-05-04T11:04:23.439Z,3.90
2023-05-04T11:07:01.062Z,3.28
2023-05-04T11:09:31.717Z,3.33
2023-05-04T11:12:02.501Z,3.40
2023-05-04T11:14:37.908Z,3.28
2023-05-04T11:17:26.779Z,3.53
2023-05-04T11:19:58.352Z,3.58
2023-05-04T11:22:28.727Z,3.53
2023-05-04T11:24:58.858Z,3.47
2023-05-04T11:27:31.648Z,3.42
2023-05-04T11:30:05.936Z,3.30
2023-05-04T11:32:38.143Z,3.53
2023-05-04T11:35:11.606Z,3.55
2023-05-04T11:37:43.005Z,3.45
2023-05-04T11:40:15.165Z,3.30
2023-05-04T11:42:45.978Z,3.25
2023-05-04T11:45:21.443Z,3.70
2023-05-04T11:47:52.746Z,3.60
2023-05-04T11:50:23.870Z,3.83
2023-05-04T11:52:53.978Z,3.35
2023-05-04T11:55:31.669Z,3.42
2023-05-04T11:58:03.533Z,3.00
2023-05-04T12:00:46.440Z,3.20
2023-05-04T12:03:18.177Z,3.33
2023-05-04T12:05:52.099Z,3.20
2023-05-04T12:08:26.939Z,3.22
2023-05-04T12:11:12.101Z,3.28
2023-05-04T12:13:43.298Z,3.75
2023-05-04T12:16:18.373Z,3.97
2023-05-04T12:18:49.572Z,4.85
2023-05-04T12:21:21.699Z,3.20
2023-05-04T12:23:51.610Z,3.30
2023-05-04T12:26:21.521Z,3.60
2023-05-04T12:28:51.481Z,3.30
2023-05-04T12:31:25.466Z,3.30
2023-05-04T12:36:25.481Z,3.28
2023-05-04T12:38:55.320Z,3.20
2023-05-04T12:41:25.224Z,3.72
2023-05-04T12:43:55.094Z,3.38
2023-05-04T12:46:27.657Z,3.60
2023-05-04T12:48:57.627Z,3.78
2023-05-04T12:51:27.621Z,2.90
2023-05-04T12:53:58.548Z,3.92
2023-05-04T12:56:28.482Z,3.50
2023-05-04T12:58:58.329Z,3.65
2023-05-04T13:01:30.924Z,3.90
2023-05-04T13:04:00.859Z,4.18
2023-05-04T13:06:30.722Z,3.90
2023-05-04T13:09:01.853Z,3.65
2023-05-04T13:11:31.714Z,4.32
2023-05-04T13:14:01.630Z,4.05
2023-05-04T13:16:34.254Z,3.88
2023-05-04T13:19:05.038Z,4.63
2023-05-04T13:21:35.209Z,4.68
2023-05-04T13:24:05.061Z,3.90
2023-05-04T13:26:35.103Z,4.00
2023-05-04T13:29:06.286Z,4.47
2023-05-04T13:31:44.895Z,4.80
2023-05-04T13:34:15.066Z,4.03
2023-05-04T13:36:45.533Z,4.60
2023-05-04T13:39:15.438Z,4.55
2023-05-04T13:41:45.324Z,4.38
2023-05-04T13:44:15.882Z,4.43
2023-05-04T13:46:48.320Z,4.38
2023-05-04T13:49:18.165Z,4.25
2023-05-04T13:51:48.036Z,4.15
2023-05-04T13:54:17.900Z,4.63
2023-05-04T13:56:48.650Z,5.03
2023-05-04T13:59:18.578Z,4.40
2023-05-04T14:01:51.343Z,4.28
2023-05-04T14:04:21.432Z,4.45
2023-05-04T14:06:51.788Z,4.60
2023-05-04T14:09:22.051Z,4.47
2023-05-04T14:11:52.108Z,4.30
2023-05-04T14:14:22.073Z,4.50
2023-05-04T14:16:54.488Z,4.85
2023-05-04T14:19:25.619Z,5.18
2023-05-04T14:21:56.037Z,4.97
2023-05-04T14:24:27.429Z,4.38
2023-05-04T14:26:57.330Z,4.80
2023-05-04T14:29:27.265Z,4.82
2023-05-04T14:31:59.730Z,4.90
2023-05-04T14:34:29.681Z,5.53
2023-05-04T14:36:59.505Z,4.60
2023-05-04T14:39:29.369Z,5.03
2023-05-04T14:42:00.078Z,4.45
2023-05-04T14:44:30.286Z,4.95
2023-05-04T14:47:05.474Z,5.10
2023-05-04T14:49:42.546Z,5.20
2023-05-04T14:52:12.740Z,5.20
2023-05-04T14:54:42.640Z,4.65
2023-05-04T14:57:12.481Z,4.93
2023-05-04T14:59:42.832Z,4.57
2023-05-04T15:02:16.245Z,4.40
2023-05-04T15:04:47.119Z,4.43
2023-05-04T15:07:20.621Z,4.20
2023-05-04T15:09:50.597Z,4.97
2023-05-04T15:12:20.706Z,5.15
2023-05-04T15:14:50.820Z,4.57
2023-05-04T15:17:23.313Z,4.72
2023-05-04T15:19:53.161Z,4.95
2023-05-04T15:22:23.657Z,4.70
2023-05-04T15:24:53.933Z,4.22
2023-05-04T15:27:23.773Z,4.80
2023-05-04T15:29:54.907Z,4.53
2023-05-04T15:32:27.358Z,4.20
2023-05-04T15:35:05.311Z,4.78
2023-05-04T15:37:35.563Z,3.58
2023-05-04T15:40:05.954Z,4.30
2023-05-04T15:42:36.073Z,4.20
2023-05-04T15:45:06.955Z,4.18
2023-05-04T15:47:40.820Z,4.13
2023-05-04T15:50:11.232Z,4.35
2023-05-04T15:52:41.669Z,4.55
2023-05-04T15:55:24.554Z,4.50
2023-05-04T15:57:55.704Z,4.10
2023-05-04T16:00:26.087Z,3.83
2023-05-04T16:02:58.858Z,4.05
2023-05-04T16:05:28.917Z,3.70
2023-05-04T16:07:58.981Z,4.18
2023-05-04T16:10:28.838Z,3.72
2023-05-04T16:13:04.246Z,3.70
2023-05-04T16:15:34.393Z,3.67
2023-05-04T16:18:07.374Z,4.53
2023-05-04T16:20:37.235Z,4.05
2023-05-04T16:23:07.148Z,4.30
2023-05-04T16:25:36.959Z,3.70
2023-05-04T16:28:07.035Z,3.85
2023-05-04T16:30:37.355Z,4.00
2023-05-04T16:33:09.905Z,3.63
2023-05-04T16:35:40.556Z,3.80
2023-05-04T16:38:10.439Z,3.63
2023-05-04T16:40:41.628Z,4.68
2023-05-04T16:43:12.969Z,3.88
2023-05-04T16:45:42.942Z,3.35
2023-05-04T16:48:15.332Z,3.45
2023-05-04T16:50:45.200Z,3.30
2023-05-04T16:53:15.087Z,3.53
2023-05-04T16:55:45.073Z,4.10
2023-05-04T16:58:14.932Z,3.22
2023-05-04T17:00:44.845Z,3.35
2023-05-04T17:03:17.403Z,3.60
2023-05-04T17:05:47.756Z,3.70
2023-05-04T17:08:17.623Z,4.40
2023-05-04T17:10:47.440Z,3.95
2023-05-04T17:13:17.276Z,3.60
2023-05-04T17:15:47.289Z,3.63
2023-05-04T17:18:19.745Z,4.45
2023-05-04T17:20:49.653Z,4.45
2023-05-04T17:23:19.611Z,3.38
2023-05-04T17:25:50.313Z,3.47
2023-05-04T17:28:20.141Z,3.40
2023-05-04T17:30:49.958Z,4.45
2023-05-04T17:33:22.796Z,3.33
2023-05-04T17:35:58.679Z,3.72
2023-05-04T17:38:28.528Z,3.28
2023-05-04T17:40:58.837Z,3.55
2023-05-04T17:43:28.816Z,3.53
2023-05-04T17:45:58.805Z,3.40
2023-05-04T17:48:31.393Z,3.40
2023-05-04T17:51:01.624Z,3.85
2023-05-04T17:53:31.758Z,3.50
2023-05-04T17:56:01.650Z,3.80
2023-05-04T17:58:31.492Z,3.00
2023-05-04T18:01:01.407Z,3.05
2023-05-04T18:03:33.912Z,3.55
2023-05-04T18:06:03.880Z,3.53
2023-05-04T18:08:33.828Z,3.63
2023-05-04T18:11:03.674Z,3.78
2023-05-04T18:13:33.514Z,3.20
2023-05-04T18:16:03.438Z,3.70
2023-05-04T18:18:35.887Z,3.50
2023-05-04T18:21:05.801Z,3.88
2023-05-04T18:23:36.150Z,4.03
2023-05-04T18:26:06.338Z,3.75
2023-05-04T18:28:36.310Z,3.92
2023-05-04T18:31:06.922Z,4.05
2023-05-04T18:33:39.331Z,4.20
2023-05-04T18:36:09.338Z,4.03
2023-05-04T18:38:39.373Z,3.78
2023-05-04T18:41:10.856Z,4.38
2023-05-04T18:43:41.860Z,4.38
2023-05-04T18:46:11.754Z,4.07
2023-05-04T18:48:44.281Z,3.92
2023-05-04T18:51:14.129Z,3.92
2023-05-04T18:53:44.169Z,4.20
2023-05-04T18:56:14.221Z,3.75
2023-05-04T18:58:44.081Z,4.45
2023-05-04T19:01:14.050Z,4.53
2023-05-04T19:03:47.225Z,4.28
2023-05-04T19:06:17.103Z,4.68
2023-05-04T19:08:46.964Z,4.32
2023-05-04T19:11:16.802Z,4.47
2023-05-04T19:13:46.593Z,4.38
2023-05-04T19:16:16.615Z,4.22
2023-05-04T19:18:49.311Z,4.60
2023-05-04T19:21:19.174Z,4.43
2023-05-04T19:23:49.142Z,4.00
2023-05-04T19:26:19.035Z,4.28
2023-05-04T19:28:48.861Z,4.05
2023-05-04T19:31:18.949Z,4.20
2023-05-04T19:33:52.691Z,4.28
2023-05-04T19:36:22.520Z,4.15
2023-05-04T19:38:52.907Z,4.90
2023-05-04T19:41:23.042Z,4.65
2023-05-04T19:43:52.880Z,5.45
2023-05-04T19:46:22.809Z,4.95
2023-05-04T19:48:55.304Z,4.68
2023-05-04T19:51:25.395Z,4.47
2023-05-04T19:53:55.598Z,4.43
2023-05-04T19:56:25.529Z,4.20
2023-05-04T19:58:55.364Z,4.32
2023-05-04T20:01:25.984Z,4.32
2023-05-04T20:03:58.637Z,4.15
2023-05-04T20:06:28.554Z,4.45
2023-05-04T20:08:58.379Z,4.38
2023-05-04T20:11:28.257Z,4.30
2023-05-04T20:13:58.115Z,3.65
2023-05-04T20:16:28.046Z,4.15
2023-05-04T20:19:03.406Z,4.03
2023-05-04T20:21:33.762Z,4.50
2023-05-04T20:24:04.292Z,4.45
2023-05-04T20:26:34.103Z,4.28
2023-05-04T20:29:04.139Z,4.15
2023-05-04T20:31:34.082Z,4.10
2023-05-04T20:34:06.666Z,3.83
2023-05-04T20:36:36.576Z,4.72
2023-05-04T20:39:06.939Z,4.43
2023-05-04T20:41:36.908Z,5.18
2023-05-04T20:44:07.133Z,4.95
2023-05-04T20:46:37.516Z,4.75
2023-05-04T20:49:10.057Z,4.43
2023-05-04T20:51:40.251Z,4.78
2023-05-04T20:54:10.184Z,4.72
2023-05-04T20:56:40.166Z,4.63
2023-05-04T20:59:10.299Z,4.43
2023-05-04T21:01:40.528Z,4.88
2023-05-04T21:04:13.788Z,5.13
2023-05-04T21:06:44.802Z,4.45
2023-05-04T21:09:15.649Z,4.63
2023-05-04T21:11:45.565Z,4.70
2023-05-04T21:14:15.445Z,4.80
2023-05-04T21:16:45.285Z,4.80
2023-05-04T21:19:17.806Z,5.07
2023-05-04T21:21:47.652Z,4.90
2023-05-04T21:24:17.746Z,5.13
2023-05-04T21:26:48.637Z,4.93
2023-05-04T21:29:18.593Z,5.10
2023-05-04T21:31:48.504Z,4.80
2023-05-04T21:34:21.300Z,5.10
2023-05-04T21:36:51.155Z,4.85
2023-05-04T21:39:21.670Z,4.90
2023-05-04T21:41:51.534Z,5.32
2023-05-04T21:44:21.443Z,4.75
2023-05-04T21:46:51.933Z,5.25
2023-05-04T21:49:24.708Z,5.63
2023-05-04T21:51:54.545Z,5.07
2023-05-04T21:54:25.895Z,4.78
2023-05-04T21:56:56.548Z,5.60
2023-05-04T21:59:26.444Z,5.13
2023-05-04T22:01:56.568Z,5.80
2023-05-04T22:04:29.090Z,5.40
2023-05-04T22:06:58.974Z,5.28
2023-05-04T22:09:28.916Z,5.03
2023-05-04T22:11:58.915Z,4.80
2023-05-04T22:14:28.726Z,5.10
2023-05-04T22:16:58.607Z,4.88
2023-05-04T22:19:31.050Z,4.72
2023-05-04T22:22:00.854Z,4.97
2023-05-04T22:24:30.868Z,5.00
2023-05-04T22:27:00.661Z,5.38
2023-05-04T22:29:30.626Z,5.57
2023-05-04T22:32:00.468Z,5.30
2023-05-04T22:34:32.884Z,5.85
2023-05-04T22:37:03.519Z,5.75
2023-05-04T22:39:33.398Z,5.30
2023-05-04T22:42:03.264Z,5.95
2023-05-04T22:44:33.103Z,4.90
2023-05-04T22:47:02.980Z,5.38
2023-05-04T22:49:35.417Z,5.40
2023-05-04T22:52:05.257Z,5.30
2023-05-04T22:54:35.097Z,5.13
2023-05-04T22:57:04.964Z,5.35
2023-05-04T22:59:35.365Z,5.15
2023-05-04T23:02:05.337Z,5.32
2023-05-04T23:04:38.077Z,5.45
2023-05-04T23:07:07.910Z,5.80
2023-05-04T23:09:45.397Z,5.50
2023-05-04T23:12:15.317Z,6.50
2023-05-04T23:14:45.237Z,6.10
2023-05-04T23:17:15.086Z,6.07
2023-05-04T23:19:47.573Z,6.30
2023-05-04T23:22:17.743Z,6.20
2023-05-04T23:24:47.749Z,5.97
2023-05-04T23:27:17.809Z,6.90
2023-05-04T23:29:47.674Z,6.15
2023-05-04T23:32:17.564Z,6.18
2023-05-04T23:34:50.121Z,6.63
2023-05-04T23:37:19.971Z,6.82
2023-05-04T23:39:49.914Z,8.13
2023-05-04T23:42:19.773Z,7.47
2023-05-04T23:44:49.664Z,8.02
2023-05-04T23:47:19.495Z,6.90
2023-05-04T23:49:51.938Z,6.72
2023-05-04T23:52:21.732Z,5.95
2023-05-04T23:54:55.706Z,7.07
2023-05-04T23:57:25.597Z,6.25
2023-05-04T23:59:56.095Z,6.80
